This is the latest recevied weather packets stored in our database for station/object KD5FHA. If no packets are shown the sender has not sent any weather packets the latest 10 day(s).
| Time | Temp. | Humidity | Pressure | Rain* | Wind** | Luminosity | Snow |
|---|---|---|---|---|---|---|---|
| 1778013843 | 32.22° C | 55% | 1005.2 hPa | 0 mm | - | 428 W/m² | - |
| 1778013540 | 30.56° C | 58% | 1005.3 hPa | 0 mm | - | 801 W/m² | - |
| 1778013236 | 31.11° C | 58% | 1005.4 hPa | 0 mm | - | 227 W/m² | - |
| 1778012933 | 31.67° C | 57% | 1005.5 hPa | 0 mm | - | 382 W/m² | - |
| 1778012629 | 31.67° C | 57% | 1005.4 hPa | 0 mm | - | 955 W/m² | - |
| 1778012326 | 31.67° C | 59% | 1005.5 hPa | 0 mm | - | 566 W/m² | - |
| 1778012023 | 32.22° C | 56% | 1005.4 hPa | 0 mm | - | 896 W/m² | - |
| 1778011721 | 31.67° C | 59% | 1005.6 hPa | 0 mm | - | 963 W/m² | - |
| 1778011418 | 31.11° C | 59% | 1005.5 hPa | 0 mm | - | 885 W/m² | - |
| 1778011113 | 31.11° C | 61% | 1005.8 hPa | 0 mm | - | 921 W/m² | - |
| 1778010811 | 30.56° C | 61% | 1005.7 hPa | 0 mm | - | 745 W/m² | - |
| 1778010508 | 30.56° C | 59% | 1005.6 hPa | 0 mm | - | 615 W/m² | - |
| 1778010205 | 30.56° C | 60% | 1005.8 hPa | 0 mm | - | 849 W/m² | - |
| 1778009900 | 30.56° C | 60% | 1005.6 hPa | 0 mm | - | 598 W/m² | - |
| 1778009598 | 30.56° C | 60% | 1005.7 hPa | 0 mm | - | 518 W/m² | - |
| 1778009296 | 30° C | 63% | 1005.8 hPa | 0 mm | - | 858 W/m² | - |
| 1778008994 | 30.56° C | 63% | 1005.7 hPa | 0 mm | - | 643 W/m² | - |
| 1778008692 | 30° C | 64% | 1005.7 hPa | 0 mm | - | 891 W/m² | - |
| 1778008390 | 29.44° C | 64% | 1005.8 hPa | 0 mm | - | 833 W/m² | - |
| 1778008086 | 29.44° C | 66% | 1006 hPa | 0 mm | - | 602 W/m² | - |
| 1778007782 | 29.44° C | 65% | 1006 hPa | 0 mm | - | 703 W/m² | - |
| 1778007478 | 29.44° C | 66% | 1006 hPa | 0 mm | - | 680 W/m² | - |
| 1778007174 | 28.89° C | 66% | 1006.3 hPa | 0 mm | - | 680 W/m² | - |
| 1778006870 | 29.44° C | 65% | 1006.2 hPa | 0 mm | - | 713 W/m² | - |
| 1778006568 | 28.89° C | 67% | 1006.2 hPa | 0 mm | - | 710 W/m² | - |
* Rain latest hour (hover to see other rain measurements)
** Current wind speed in m/s (hover to see current wind gust speed)